sensor_id;sensor_type;location;lat;lon;timestamp;pressure;altitude;pressure_sealevel;temperature
37452;BMP280;23314;51.114;6.900;2022-08-01T00:00:26;101345.66;;;22.63
37452;BMP280;23314;51.114;6.900;2022-08-01T00:02:51;101342.94;;;22.63
37452;BMP280;23314;51.114;6.900;2022-08-01T00:05:17;101343.97;;;22.65
37452;BMP280;23314;51.114;6.900;2022-08-01T00:07:43;101342.75;;;22.66
37452;BMP280;23314;51.114;6.900;2022-08-01T00:10:11;101337.78;;;22.65
37452;BMP280;23314;51.114;6.900;2022-08-01T00:12:37;101341.00;;;22.63
37452;BMP280;23314;51.114;6.900;2022-08-01T00:15:08;101348.38;;;22.63
37452;BMP280;23314;51.114;6.900;2022-08-01T00:17:34;101352.59;;;22.64
37452;BMP280;23314;51.114;6.900;2022-08-01T00:20:00;101343.97;;;22.65
37452;BMP280;23314;51.114;6.900;2022-08-01T00:22:25;101341.72;;;22.64
37452;BMP280;23314;51.114;6.900;2022-08-01T00:24:50;101350.91;;;22.66
37452;BMP280;23314;51.114;6.900;2022-08-01T00:27:16;101341.78;;;22.69
37452;BMP280;23314;51.114;6.900;2022-08-01T00:29:41;101343.50;;;22.67
37452;BMP280;23314;51.114;6.900;2022-08-01T00:32:07;101345.00;;;22.68
37452;BMP280;23314;51.114;6.900;2022-08-01T00:34:33;101355.88;;;22.68
37452;BMP280;23314;51.114;6.900;2022-08-01T00:36:58;101350.91;;;22.66
37452;BMP280;23314;51.114;6.900;2022-08-01T00:39:23;101349.69;;;22.67
37452;BMP280;23314;51.114;6.900;2022-08-01T00:41:49;101347.44;;;22.66
37452;BMP280;23314;51.114;6.900;2022-08-01T00:44:14;101344.25;;;22.67
37452;BMP280;23314;51.114;6.900;2022-08-01T00:46:39;101345.94;;;22.65
37452;BMP280;23314;51.114;6.900;2022-08-01T00:49:05;101346.16;;;22.61
37452;BMP280;23314;51.114;6.900;2022-08-01T00:51:30;101348.88;;;22.61
37452;BMP280;23314;51.114;6.900;2022-08-01T00:53:56;101345.88;;;22.59
37452;BMP280;23314;51.114;6.900;2022-08-01T00:56:24;101344.84;;;22.56
37452;BMP280;23314;51.114;6.900;2022-08-01T00:58:50;101359.69;;;22.55
37452;BMP280;23314;51.114;6.900;2022-08-01T01:01:16;101355.22;;;22.52
37452;BMP280;23314;51.114;6.900;2022-08-01T01:03:41;101344.34;;;22.52
37452;BMP280;23314;51.114;6.900;2022-08-01T01:09:02;101338.13;;;22.52
37452;BMP280;23314;51.114;6.900;2022-08-01T01:11:37;101340.84;;;22.52
37452;BMP280;23314;51.114;6.900;2022-08-01T01:14:10;101345.25;;;22.49
37452;BMP280;23314;51.114;6.900;2022-08-01T01:16:40;101352.66;;;22.49
37452;BMP280;23314;51.114;6.900;2022-08-01T01:19:10;101349.69;;;22.47
37452;BMP280;23314;51.114;6.900;2022-08-01T01:30:22;101343.44;;;22.41
37452;BMP280;23314;51.114;6.900;2022-08-01T01:32:50;101349.34;;;22.39
37452;BMP280;23314;51.114;6.900;2022-08-01T01:35:32;101356.22;;;22.34
37452;BMP280;23314;51.114;6.900;2022-08-01T01:38:07;101355.44;;;22.34
37452;BMP280;23314;51.114;6.900;2022-08-01T01:40:34;101354.44;;;22.31
37452;BMP280;23314;51.114;6.900;2022-08-01T01:42:59;101347.97;;;22.29
37452;BMP280;23314;51.114;6.900;2022-08-01T01:45:25;101350.13;;;22.25
37452;BMP280;23314;51.114;6.900;2022-08-01T01:47:52;101346.22;;;22.26
37452;BMP280;23314;51.114;6.900;2022-08-01T01:50:20;101347.44;;;22.25
37452;BMP280;23314;51.114;6.900;2022-08-01T01:52:46;101357.03;;;22.20
37452;BMP280;23314;51.114;6.900;2022-08-01T01:55:12;101352.81;;;22.19
37452;BMP280;23314;51.114;6.900;2022-08-01T01:57:40;101354.03;;;22.18
37452;BMP280;23314;51.114;6.900;2022-08-01T02:00:07;101357.22;;;22.16
37452;BMP280;23314;51.114;6.900;2022-08-01T02:02:36;101354.19;;;22.14
37452;BMP280;23314;51.114;6.900;2022-08-01T02:05:02;101348.03;;;22.14
37452;BMP280;23314;51.114;6.900;2022-08-01T02:07:28;101347.25;;;22.13
37452;BMP280;23314;51.114;6.900;2022-08-01T02:09:54;101343.53;;;22.11
37452;BMP280;23314;51.114;6.900;2022-08-01T02:12:21;101344.75;;;22.10
37452;BMP280;23314;51.114;6.900;2022-08-01T02:14:51;101346.75;;;22.09
37452;BMP280;23314;51.114;6.900;2022-08-01T02:17:20;101345.06;;;22.12
37452;BMP280;23314;51.114;6.900;2022-08-01T02:19:46;101341.81;;;22.13
37452;BMP280;23314;51.114;6.900;2022-08-01T02:22:16;101344.84;;;22.15
37452;BMP280;23314;51.114;6.900;2022-08-01T02:24:52;101348.03;;;22.14
37452;BMP280;23314;51.114;6.900;2022-08-01T02:27:34;101345.31;;;22.14
37452;BMP280;23314;51.114;6.900;2022-08-01T02:30:05;101341.09;;;22.13
37452;BMP280;23314;51.114;6.900;2022-08-01T02:32:38;101344.09;;;22.15
37452;BMP280;23314;51.114;6.900;2022-08-01T02:35:07;101340.63;;;22.14
37452;BMP280;23314;51.114;6.900;2022-08-01T02:37:37;101340.63;;;22.14
37452;BMP280;23314;51.114;6.900;2022-08-01T02:40:04;101333.97;;;22.15
37452;BMP280;23314;51.114;6.900;2022-08-01T02:42:31;101330.78;;;22.17
37452;BMP280;23314;51.114;6.900;2022-08-01T02:44:57;101332.75;;;22.16
37452;BMP280;23314;51.114;6.900;2022-08-01T02:47:25;101330.31;;;22.18
37452;BMP280;23314;51.114;6.900;2022-08-01T02:49:52;101335.75;;;22.18
37452;BMP280;23314;51.114;6.900;2022-08-01T02:52:20;101336.22;;;22.17
37452;BMP280;23314;51.114;6.900;2022-08-01T02:54:51;101332.00;;;22.16
37452;BMP280;23314;51.114;6.900;2022-08-01T02:57:20;101337.16;;;22.14
37452;BMP280;23314;51.114;6.900;2022-08-01T02:59:47;101330.69;;;22.11
37452;BMP280;23314;51.114;6.900;2022-08-01T03:02:13;101328.75;;;22.12
37452;BMP280;23314;51.114;6.900;2022-08-01T03:04:40;101325.25;;;22.11
37452;BMP280;23314;51.114;6.900;2022-08-01T03:07:09;101330.69;;;22.11
37452;BMP280;23314;51.114;6.900;2022-08-01T03:09:43;101327.25;;;22.11
37452;BMP280;23314;51.114;6.900;2022-08-01T03:12:13;101333.16;;;22.09
37452;BMP280;23314;51.114;6.900;2022-08-01T03:14:40;101332.88;;;22.07
37452;BMP280;23314;51.114;6.900;2022-08-01T03:17:07;101338.78;;;22.06
37452;BMP280;23314;51.114;6.900;2022-08-01T03:19:34;101342.69;;;22.04
37452;BMP280;23314;51.114;6.900;2022-08-01T03:22:01;101338.97;;;22.02
37452;BMP280;23314;51.114;6.900;2022-08-01T03:24:28;101337.47;;;22.01
37452;BMP280;23314;51.114;6.900;2022-08-01T03:26:56;101349.09;;;22.01
37452;BMP280;23314;51.114;6.900;2022-08-01T03:29:24;101340.19;;;22.01
37452;BMP280;23314;51.114;6.900;2022-08-01T03:31:51;101346.38;;;22.01
37452;BMP280;23314;51.114;6.900;2022-08-01T03:34:17;101348.34;;;22.01
37452;BMP280;23314;51.114;6.900;2022-08-01T03:39:19;101351.63;;;22.05
37452;BMP280;23314;51.114;6.900;2022-08-01T03:41:51;101347.69;;;22.06
37452;BMP280;23314;51.114;6.900;2022-08-01T03:44:23;101351.91;;;22.07
37452;BMP280;23314;51.114;6.900;2022-08-01T03:47:04;101349.94;;;22.08
37452;BMP280;23314;51.114;6.900;2022-08-01T03:49:32;101352.91;;;22.10
37452;BMP280;23314;51.114;6.900;2022-08-01T03:52:01;101352.16;;;22.09
37452;BMP280;23314;51.114;6.900;2022-08-01T03:54:30;101349.94;;;22.08
37452;BMP280;23314;51.114;6.900;2022-08-01T03:56:59;101346.47;;;22.07
37452;BMP280;23314;51.114;6.900;2022-08-01T03:59:25;101356.56;;;22.07
37452;BMP280;23314;51.114;6.900;2022-08-01T04:01:52;101349.19;;;22.07
37452;BMP280;23314;51.114;6.900;2022-08-01T04:04:18;101348.44;;;22.07
37452;BMP280;23314;51.114;6.900;2022-08-01T04:06:43;101351.34;;;22.03
37452;BMP280;23314;51.114;6.900;2022-08-01T04:09:10;101344.41;;;22.02
37452;BMP280;23314;51.114;6.900;2022-08-01T04:11:35;101349.38;;;22.03
37452;BMP280;23314;51.114;6.900;2022-08-01T04:14:01;101341.97;;;22.04
37452;BMP280;23314;51.114;6.900;2022-08-01T04:16:26;101345.41;;;22.04
37452;BMP280;23314;51.114;6.900;2022-08-01T04:18:51;101343.25;;;22.09
37452;BMP280;23314;51.114;6.900;2022-08-01T04:21:20;101343.53;;;22.11
37452;BMP280;23314;51.114;6.900;2022-08-01T04:23:48;101349.25;;;22.13
37452;BMP280;23314;51.114;6.900;2022-08-01T04:26:15;101351.69;;;22.11
37452;BMP280;23314;51.114;6.900;2022-08-01T04:28:42;101352.91;;;22.10
37452;BMP280;23314;51.114;6.900;2022-08-01T04:31:09;101350.19;;;22.10
37452;BMP280;23314;51.114;6.900;2022-08-01T04:33:35;101351.22;;;22.12
37452;BMP280;23314;51.114;6.900;2022-08-01T04:36:03;101356.47;;;22.16
37452;BMP280;23314;51.114;6.900;2022-08-01T04:38:30;101357.69;;;22.15
37452;BMP280;23314;51.114;6.900;2022-08-01T04:40:57;101358.63;;;22.12
37452;BMP280;23314;51.114;6.900;2022-08-01T04:43:23;101364.06;;;22.12
37452;BMP280;23314;51.114;6.900;2022-08-01T04:45:50;101365.75;;;22.09
37452;BMP280;23314;51.114;6.900;2022-08-01T04:48:17;101370.25;;;22.12
37452;BMP280;23314;51.114;6.900;2022-08-01T04:50:44;101372.28;;;22.17
37452;BMP280;23314;51.114;6.900;2022-08-01T04:53:14;101378.28;;;22.21
37452;BMP280;23314;51.114;6.900;2022-08-01T04:55:39;101384.75;;;22.24
37452;BMP280;23314;51.114;6.900;2022-08-01T04:58:04;101387.72;;;22.26
37452;BMP280;23314;51.114;6.900;2022-08-01T05:00:30;101385.28;;;22.28
37452;BMP280;23314;51.114;6.900;2022-08-01T05:02:55;101385.09;;;22.32
37452;BMP280;23314;51.114;6.900;2022-08-01T05:05:20;101389.38;;;22.38
37452;BMP280;23314;51.114;6.900;2022-08-01T05:07:46;101381.78;;;22.43
37452;BMP280;23314;51.114;6.900;2022-08-01T05:10:11;101388.50;;;22.47
37452;BMP280;23314;51.114;6.900;2022-08-01T05:12:37;101388.00;;;22.49
37452;BMP280;23314;51.114;6.900;2022-08-01T05:15:02;101386.53;;;22.48
37452;BMP280;23314;51.114;6.900;2022-08-01T05:17:28;101386.06;;;22.49
37452;BMP280;23314;51.114;6.900;2022-08-01T05:19:53;101392.22;;;22.50
37452;BMP280;23314;51.114;6.900;2022-08-01T05:22:19;101396.44;;;22.51
37452;BMP280;23314;51.114;6.900;2022-08-01T05:24:44;101393.00;;;22.50
37452;BMP280;23314;51.114;6.900;2022-08-01T05:27:11;101392.22;;;22.50
37452;BMP280;23314;51.114;6.900;2022-08-01T05:29:36;101398.63;;;22.47
37452;BMP280;23314;51.114;6.900;2022-08-01T05:32:02;101396.59;;;22.42
37452;BMP280;23314;51.114;6.900;2022-08-01T05:34:27;101397.53;;;22.38
37452;BMP280;23314;51.114;6.900;2022-08-01T05:36:53;101404.19;;;22.37
37452;BMP280;23314;51.114;6.900;2022-08-01T05:39:18;101405.44;;;22.36
37452;BMP280;23314;51.114;6.900;2022-08-01T05:41:44;101396.22;;;22.34
37452;BMP280;23314;51.114;6.900;2022-08-01T05:44:10;101401.94;;;22.36
37452;BMP280;23314;51.114;6.900;2022-08-01T05:46:35;101400.03;;;22.42
37452;BMP280;23314;51.114;6.900;2022-08-01T05:49:02;101403.59;;;22.48
37452;BMP280;23314;51.114;6.900;2022-08-01T05:51:28;101412.31;;;22.52
37452;BMP280;23314;51.114;6.900;2022-08-01T05:53:54;101415.56;;;22.56
37452;BMP280;23314;51.114;6.900;2022-08-01T05:56:20;101411.69;;;22.63
37452;BMP280;23314;51.114;6.900;2022-08-01T05:58:46;101415.50;;;22.71
37452;BMP280;23314;51.114;6.900;2022-08-01T06:01:11;101413.38;;;22.81
37452;BMP280;23314;51.114;6.900;2022-08-01T06:03:37;101416.22;;;22.92
37452;BMP280;23314;51.114;6.900;2022-08-01T06:06:03;101412.88;;;23.03
37452;BMP280;23314;51.114;6.900;2022-08-01T06:08:28;101409.06;;;23.16
37452;BMP280;23314;51.114;6.900;2022-08-01T06:10:54;101411.63;;;23.25
37452;BMP280;23314;51.114;6.900;2022-08-01T06:13:19;101417.28;;;23.48
37452;BMP280;23314;51.114;6.900;2022-08-01T06:15:45;101419.41;;;23.64
37452;BMP280;23314;51.114;6.900;2022-08-01T06:18:11;101421.94;;;23.73
37452;BMP280;23314;51.114;6.900;2022-08-01T06:20:36;101411.34;;;23.81
37452;BMP280;23314;51.114;6.900;2022-08-01T06:23:02;101413.91;;;23.96
37452;BMP280;23314;51.114;6.900;2022-08-01T06:25:27;101420.34;;;23.93
37452;BMP280;23314;51.114;6.900;2022-08-01T06:27:53;101408.41;;;23.85
37452;BMP280;23314;51.114;6.900;2022-08-01T06:30:18;101406.41;;;23.85
37452;BMP280;23314;51.114;6.900;2022-08-01T06:32:43;101404.50;;;23.97
37452;BMP280;23314;51.114;6.900;2022-08-01T06:35:09;101406.34;;;24.17
37452;BMP280;23314;51.114;6.900;2022-08-01T06:37:34;101407.19;;;24.40
37452;BMP280;23314;51.114;6.900;2022-08-01T06:40:01;101409.75;;;24.55
37452;BMP280;23314;51.114;6.900;2022-08-01T06:42:26;101413.06;;;24.76
37452;BMP280;23314;51.114;6.900;2022-08-01T06:44:51;101401.66;;;24.89
37452;BMP280;23314;51.114;6.900;2022-08-01T06:47:17;101406.38;;;25.00
37452;BMP280;23314;51.114;6.900;2022-08-01T06:49:42;101409.38;;;24.96
37452;BMP280;23314;51.114;6.900;2022-08-01T06:52:08;101407.59;;;24.76
37452;BMP280;23314;51.114;6.900;2022-08-01T06:54:33;101416.44;;;24.54
37452;BMP280;23314;51.114;6.900;2022-08-01T06:56:58;101415.88;;;24.33
37452;BMP280;23314;51.114;6.900;2022-08-01T06:59:23;101410.88;;;24.26
37452;BMP280;23314;51.114;6.900;2022-08-01T07:01:49;101414.59;;;24.28
37452;BMP280;23314;51.114;6.900;2022-08-01T07:04:14;101420.09;;;24.34
37452;BMP280;23314;51.114;6.900;2022-08-01T07:06:40;101419.78;;;24.26
37452;BMP280;23314;51.114;6.900;2022-08-01T07:09:05;101417.53;;;24.19
37452;BMP280;23314;51.114;6.900;2022-08-01T07:11:30;101418.75;;;24.12
37452;BMP280;23314;51.114;6.900;2022-08-01T07:13:56;101410.28;;;24.10
37452;BMP280;23314;51.114;6.900;2022-08-01T07:16:22;101426.56;;;23.99
37452;BMP280;23314;51.114;6.900;2022-08-01T07:18:47;101422.31;;;23.92
37452;BMP280;23314;51.114;6.900;2022-08-01T07:21:13;101420.06;;;23.91
37452;BMP280;23314;51.114;6.900;2022-08-01T07:23:38;101421.97;;;23.79
37452;BMP280;23314;51.114;6.900;2022-08-01T07:26:04;101413.75;;;23.73
37452;BMP280;23314;51.114;6.900;2022-08-01T07:28:30;101416.97;;;23.72
37452;BMP280;23314;51.114;6.900;2022-08-01T07:30:55;101424.94;;;23.81
37452;BMP280;23314;51.114;6.900;2022-08-01T07:33:20;101423.53;;;23.91
37452;BMP280;23314;51.114;6.900;2022-08-01T07:35:47;101422.22;;;24.19
37452;BMP280;23314;51.114;6.900;2022-08-01T07:38:12;101421.84;;;24.43
37452;BMP280;23314;51.114;6.900;2022-08-01T07:40:39;101427.34;;;24.48
37452;BMP280;23314;51.114;6.900;2022-08-01T07:43:04;101420.88;;;24.46
37452;BMP280;23314;51.114;6.900;2022-08-01T07:45:30;101421.44;;;24.67
37452;BMP280;23314;51.114;6.900;2022-08-01T07:47:55;101427.25;;;25.09
37452;BMP280;23314;51.114;6.900;2022-08-01T07:50:21;101435.22;;;25.29
37452;BMP280;23314;51.114;6.900;2022-08-01T07:52:46;101446.66;;;25.56
37452;BMP280;23314;51.114;6.900;2022-08-01T07:55:11;101434.19;;;25.83
37452;BMP280;23314;51.114;6.900;2022-08-01T07:57:37;101439.63;;;26.00
37452;BMP280;23314;51.114;6.900;2022-08-01T08:00:06;101435.41;;;25.99
37452;BMP280;23314;51.114;6.900;2022-08-01T08:02:33;101437.91;;;25.97
37452;BMP280;23314;51.114;6.900;2022-08-01T08:04:58;101437.19;;;25.74
37452;BMP280;23314;51.114;6.900;2022-08-01T08:07:24;101434.25;;;25.55
37452;BMP280;23314;51.114;6.900;2022-08-01T08:09:49;101435.97;;;25.35
37452;BMP280;23314;51.114;6.900;2022-08-01T08:12:14;101439.66;;;25.15
37452;BMP280;23314;51.114;6.900;2022-08-01T08:14:39;101438.91;;;25.03
37452;BMP280;23314;51.114;6.900;2022-08-01T08:17:05;101444.38;;;25.09
37452;BMP280;23314;51.114;6.900;2022-08-01T08:19:31;101446.88;;;25.24
37452;BMP280;23314;51.114;6.900;2022-08-01T08:21:59;101445.66;;;25.36
37452;BMP280;23314;51.114;6.900;2022-08-01T08:24:24;101448.38;;;25.48
37452;BMP280;23314;51.114;6.900;2022-08-01T08:26:55;101437.69;;;25.72
37452;BMP280;23314;51.114;6.900;2022-08-01T08:29:21;101441.16;;;25.78
37452;BMP280;23314;51.114;6.900;2022-08-01T08:31:47;101447.34;;;26.02
37452;BMP280;23314;51.114;6.900;2022-08-01T08:34:13;101446.97;;;26.34
37452;BMP280;23314;51.114;6.900;2022-08-01T08:36:38;101444.63;;;26.60
37452;BMP280;23314;51.114;6.900;2022-08-01T08:39:04;101444.50;;;26.83
37452;BMP280;23314;51.114;6.900;2022-08-01T08:41:31;101442.56;;;27.14
37452;BMP280;23314;51.114;6.900;2022-08-01T08:43:57;101449.19;;;27.24
37452;BMP280;23314;51.114;6.900;2022-08-01T08:46:25;101446.91;;;26.98
37452;BMP280;23314;51.114;6.900;2022-08-01T08:48:52;101448.47;;;26.88
37452;BMP280;23314;51.114;6.900;2022-08-01T08:51:18;101453.28;;;26.70
37452;BMP280;23314;51.114;6.900;2022-08-01T08:53:46;101451.66;;;26.50
37452;BMP280;23314;51.114;6.900;2022-08-01T08:56:12;101459.47;;;26.76
37452;BMP280;23314;51.114;6.900;2022-08-01T08:58:40;101448.56;;;26.71
37452;BMP280;23314;51.114;6.900;2022-08-01T09:01:06;101449.66;;;26.92
37452;BMP280;23314;51.114;6.900;2022-08-01T09:03:34;101449.19;;;27.24
37452;BMP280;23314;51.114;6.900;2022-08-01T09:05:59;101454.09;;;27.01
37452;BMP280;23314;51.114;6.900;2022-08-01T09:08:25;101453.31;;;26.64
37452;BMP280;23314;51.114;6.900;2022-08-01T09:10:50;101461.97;;;26.74
37452;BMP280;23314;51.114;6.900;2022-08-01T09:13:15;101455.84;;;26.98
37452;BMP280;23314;51.114;6.900;2022-08-01T09:15:47;101461.94;;;27.16
37452;BMP280;23314;51.114;6.900;2022-08-01T09:18:35;101459.22;;;27.16
37452;BMP280;23314;51.114;6.900;2022-08-01T09:21:20;101451.00;;;27.16
37452;BMP280;23314;51.114;6.900;2022-08-01T09:23:51;101452.66;;;27.25
37452;BMP280;23314;51.114;6.900;2022-08-01T09:26:21;101463.63;;;27.25
37452;BMP280;23314;51.114;6.900;2022-08-01T09:28:52;101467.66;;;27.18
37452;BMP280;23314;51.114;6.900;2022-08-01T09:31:18;101465.28;;;27.03
37452;BMP280;23314;51.114;6.900;2022-08-01T09:33:49;101463.19;;;26.84
37452;BMP280;23314;51.114;6.900;2022-08-01T09:36:14;101457.75;;;26.73
37452;BMP280;23314;51.114;6.900;2022-08-01T09:38:40;101470.75;;;26.61
37452;BMP280;23314;51.114;6.900;2022-08-01T09:41:05;101468.53;;;26.54
37452;BMP280;23314;51.114;6.900;2022-08-01T09:43:32;101467.53;;;26.57
37452;BMP280;23314;51.114;6.900;2022-08-01T09:45:59;101473.16;;;26.76
37452;BMP280;23314;51.114;6.900;2022-08-01T09:48:29;101463.63;;;27.25
37452;BMP280;23314;51.114;6.900;2022-08-01T09:50:55;101462.91;;;27.79
37452;BMP280;23314;51.114;6.900;2022-08-01T09:53:21;101463.78;;;28.31
37452;BMP280;23314;51.114;6.900;2022-08-01T09:55:46;101467.19;;;28.56
37452;BMP280;23314;51.114;6.900;2022-08-01T09:58:11;101456.50;;;28.52
37452;BMP280;23314;51.114;6.900;2022-08-01T10:00:39;101467.38;;;28.45
37452;BMP280;23314;51.114;6.900;2022-08-01T10:03:25;101465.34;;;28.45
37452;BMP280;23314;51.114;6.900;2022-08-01T10:05:51;101466.22;;;28.35
37452;BMP280;23314;51.114;6.900;2022-08-01T10:08:18;101457.91;;;28.21
37452;BMP280;23314;51.114;6.900;2022-08-01T10:11:06;101457.88;;;28.27
37452;BMP280;23314;51.114;6.900;2022-08-01T10:13:32;101450.50;;;28.16
37452;BMP280;23314;51.114;6.900;2022-08-01T10:15:59;101447.09;;;28.10
37452;BMP280;23314;51.114;6.900;2022-08-01T10:18:25;101448.91;;;28.02
37452;BMP280;23314;51.114;6.900;2022-08-01T10:20:52;101447.00;;;27.96
37452;BMP280;23314;51.114;6.900;2022-08-01T10:23:18;101449.09;;;28.09
37452;BMP280;23314;51.114;6.900;2022-08-01T10:25:44;101450.66;;;28.24
37452;BMP280;23314;51.114;6.900;2022-08-01T10:28:16;101446.81;;;28.32
37452;BMP280;23314;51.114;6.900;2022-08-01T10:30:44;101453.06;;;28.33
37452;BMP280;23314;51.114;6.900;2022-08-01T10:33:10;101456.69;;;28.41
37452;BMP280;23314;51.114;6.900;2022-08-01T10:35:40;101455.19;;;28.40
37452;BMP280;23314;51.114;6.900;2022-08-01T10:38:06;101451.94;;;28.42
37452;BMP280;23314;51.114;6.900;2022-08-01T10:40:31;101456.38;;;28.45
37452;BMP280;23314;51.114;6.900;2022-08-01T10:42:57;101451.63;;;28.45
37452;BMP280;23314;51.114;6.900;2022-08-01T10:45:23;101454.22;;;28.57
37452;BMP280;23314;51.114;6.900;2022-08-01T10:48:02;101451.38;;;28.81
37452;BMP280;23314;51.114;6.900;2022-08-01T10:50:52;101449.84;;;28.99
37452;BMP280;23314;51.114;6.900;2022-08-01T10:53:19;101443.72;;;29.06
37452;BMP280;23314;51.114;6.900;2022-08-01T11:01:19;101448.75;;;29.35
37452;BMP280;23314;51.114;6.900;2022-08-01T11:06:40;101439.66;;;29.40
37452;BMP280;23314;51.114;6.900;2022-08-01T11:09:27;101437.88;;;29.56
37452;BMP280;23314;51.114;6.900;2022-08-01T11:12:07;101439.66;;;29.80
37452;BMP280;23314;51.114;6.900;2022-08-01T11:17:42;101442.84;;;29.71
37452;BMP280;23314;51.114;6.900;2022-08-01T11:20:26;101448.44;;;29.52
37452;BMP280;23314;51.114;6.900;2022-08-01T11:30:48;101447.94;;;28.94
37452;BMP280;23314;51.114;6.900;2022-08-01T11:33:16;101436.09;;;28.99
37452;BMP280;23314;51.114;6.900;2022-08-01T11:38:35;101434.50;;;28.91
37452;BMP280;23314;51.114;6.900;2022-08-01T11:41:28;101434.59;;;28.85
37452;BMP280;23314;51.114;6.900;2022-08-01T11:49:29;101431.69;;;28.77
37452;BMP280;23314;51.114;6.900;2022-08-01T11:52:07;101428.31;;;29.03
37452;BMP280;23314;51.114;6.900;2022-08-01T11:54:38;101417.78;;;29.34
37452;BMP280;23314;51.114;6.900;2022-08-01T11:57:11;101431.59;;;29.69
37452;BMP280;23314;51.114;6.900;2022-08-01T11:59:54;101422.22;;;29.64
37452;BMP280;23314;51.114;6.900;2022-08-01T12:02:22;101427.59;;;29.43
37452;BMP280;23314;51.114;6.900;2022-08-01T12:04:52;101422.97;;;29.38
37452;BMP280;23314;51.114;6.900;2022-08-01T12:07:18;101416.41;;;29.41
37452;BMP280;23314;51.114;6.900;2022-08-01T12:09:44;101421.50;;;29.37
37452;BMP280;23314;51.114;6.900;2022-08-01T12:12:10;101422.22;;;29.51
37452;BMP280;23314;51.114;6.900;2022-08-01T12:14:36;101429.09;;;29.57
37452;BMP280;23314;51.114;6.900;2022-08-01T12:17:02;101427.50;;;29.49
37452;BMP280;23314;51.114;6.900;2022-08-01T12:19:27;101426.03;;;29.48
37452;BMP280;23314;51.114;6.900;2022-08-01T12:24:33;101433.63;;;29.28
37452;BMP280;23314;51.114;6.900;2022-08-01T12:26:59;101423.69;;;29.25
37452;BMP280;23314;51.114;6.900;2022-08-01T12:29:50;101428.31;;;29.30
37452;BMP280;23314;51.114;6.900;2022-08-01T12:32:29;101427.19;;;29.25
37452;BMP280;23314;51.114;6.900;2022-08-01T12:35:00;101426.84;;;29.29
37452;BMP280;23314;51.114;6.900;2022-08-01T12:37:26;101421.56;;;29.31
37452;BMP280;23314;51.114;6.900;2022-08-01T12:39:52;101428.44;;;29.51
37452;BMP280;23314;51.114;6.900;2022-08-01T12:42:18;101433.53;;;29.47
37452;BMP280;23314;51.114;6.900;2022-08-01T12:44:46;101418.09;;;29.44
37452;BMP280;23314;51.114;6.900;2022-08-01T12:47:13;101419.56;;;29.45
37452;BMP280;23314;51.114;6.900;2022-08-01T12:49:41;101427.41;;;29.54
37452;BMP280;23314;51.114;6.900;2022-08-01T12:52:12;101427.59;;;29.56
37452;BMP280;23314;51.114;6.900;2022-08-01T12:55:00;101413.78;;;29.49
37452;BMP280;23314;51.114;6.900;2022-08-01T12:57:26;101411.31;;;29.45
37452;BMP280;23314;51.114;6.900;2022-08-01T13:00:16;101416.19;;;29.52
37452;BMP280;23314;51.114;6.900;2022-08-01T13:02:43;101427.06;;;29.58
37452;BMP280;23314;51.114;6.900;2022-08-01T13:05:10;101427.84;;;29.58
37452;BMP280;23314;51.114;6.900;2022-08-01T13:07:48;101425.91;;;29.53
37452;BMP280;23314;51.114;6.900;2022-08-01T13:10:23;101414.06;;;29.72
37452;BMP280;23314;51.114;6.900;2022-08-01T13:12:55;101433.94;;;29.78
37452;BMP280;23314;51.114;6.900;2022-08-01T13:15:27;101432.03;;;29.73
37452;BMP280;23314;51.114;6.900;2022-08-01T13:17:53;101419.16;;;29.68
37452;BMP280;23314;51.114;6.900;2022-08-01T13:20:30;101431.84;;;29.71
37452;BMP280;23314;51.114;6.900;2022-08-01T13:23:09;101420.19;;;29.65
37452;BMP280;23314;51.114;6.900;2022-08-01T13:25:49;101420.84;;;29.71
37452;BMP280;23314;51.114;6.900;2022-08-01T13:28:16;101425.59;;;29.70
37452;BMP280;23314;51.114;6.900;2022-08-01T13:30:54;101420.19;;;29.65
37452;BMP280;23314;51.114;6.900;2022-08-01T13:33:20;101429.53;;;29.61
37452;BMP280;23314;51.114;6.900;2022-08-01T13:35:45;101425.81;;;29.59
37452;BMP280;23314;51.114;6.900;2022-08-01T13:38:13;101411.31;;;29.72
37452;BMP280;23314;51.114;6.900;2022-08-01T13:40:38;101415.41;;;29.92
37452;BMP280;23314;51.114;6.900;2022-08-01T13:43:03;101423.69;;;29.92
37452;BMP280;23314;51.114;6.900;2022-08-01T13:45:29;101416.47;;;29.89
37452;BMP280;23314;51.114;6.900;2022-08-01T13:47:54;101423.69;;;29.92
37452;BMP280;23314;51.114;6.900;2022-08-01T13:50:19;101417.00;;;30.01
37452;BMP280;23314;51.114;6.900;2022-08-01T13:52:44;101423.53;;;30.11
37452;BMP280;23314;51.114;6.900;2022-08-01T13:55:10;101430.25;;;30.23
37452;BMP280;23314;51.114;6.900;2022-08-01T13:57:35;101431.06;;;30.31
37452;BMP280;23314;51.114;6.900;2022-08-01T14:00:01;101438.22;;;30.48
37452;BMP280;23314;51.114;6.900;2022-08-01T14:02:27;101423.88;;;30.49
37452;BMP280;23314;51.114;6.900;2022-08-01T14:04:53;101421.06;;;30.63
37452;BMP280;23314;51.114;6.900;2022-08-01T14:07:20;101420.72;;;30.66
37452;BMP280;23314;51.114;6.900;2022-08-01T14:09:45;101426.00;;;30.57
37452;BMP280;23314;51.114;6.900;2022-08-01T14:12:11;101434.63;;;30.40
37452;BMP280;23314;51.114;6.900;2022-08-01T14:14:37;101425.03;;;30.33
37452;BMP280;23314;51.114;6.900;2022-08-01T14:17:04;101428.31;;;30.31
37452;BMP280;23314;51.114;6.900;2022-08-01T14:19:29;101426.72;;;30.36
37452;BMP280;23314;51.114;6.900;2022-08-01T14:21:56;101430.41;;;30.39
37452;BMP280;23314;51.114;6.900;2022-08-01T14:24:22;101430.97;;;30.24
37452;BMP280;23314;51.114;6.900;2022-08-01T14:26:47;101430.38;;;30.04
37452;BMP280;23314;51.114;6.900;2022-08-01T14:29:12;101420.69;;;29.90
37452;BMP280;23314;51.114;6.900;2022-08-01T14:31:38;101426.44;;;29.92
37452;BMP280;23314;51.114;6.900;2022-08-01T14:34:03;101424.19;;;29.90
37452;BMP280;23314;51.114;6.900;2022-08-01T14:36:28;101416.81;;;29.85
37452;BMP280;23314;51.114;6.900;2022-08-01T14:38:54;101416.88;;;29.93
37452;BMP280;23314;51.114;6.900;2022-08-01T14:41:19;101412.81;;;30.07
37452;BMP280;23314;51.114;6.900;2022-08-01T14:43:44;101434.81;;;30.21